sensor_id;sensor_type;location;lat;lon;timestamp;P1;durP1;ratioP1;P2;durP2;ratioP2
24826;SDS011;12910;57.690;11.974;2023-04-25T00:00:14;9.23;;;8.33;;
24826;SDS011;12910;57.690;11.974;2023-04-25T00:02:39;9.80;;;9.20;;
24826;SDS011;12910;57.690;11.974;2023-04-25T00:05:05;10.10;;;9.50;;
24826;SDS011;12910;57.690;11.974;2023-04-25T00:07:31;10.13;;;9.40;;
24826;SDS011;12910;57.690;11.974;2023-04-25T00:09:57;9.03;;;8.40;;
24826;SDS011;12910;57.690;11.974;2023-04-25T00:12:23;10.50;;;9.53;;
24826;SDS011;12910;57.690;11.974;2023-04-25T00:14:48;10.17;;;9.57;;
24826;SDS011;12910;57.690;11.974;2023-04-25T00:17:15;10.00;;;9.40;;
24826;SDS011;12910;57.690;11.974;2023-04-25T00:19:44;9.80;;;9.20;;
24826;SDS011;12910;57.690;11.974;2023-04-25T00:22:11;10.80;;;10.20;;
24826;SDS011;12910;57.690;11.974;2023-04-25T00:24:37;10.60;;;9.90;;
24826;SDS011;12910;57.690;11.974;2023-04-25T00:27:02;10.63;;;10.03;;
24826;SDS011;12910;57.690;11.974;2023-04-25T00:29:28;10.13;;;9.27;;
24826;SDS011;12910;57.690;11.974;2023-04-25T00:31:53;10.43;;;9.83;;
24826;SDS011;12910;57.690;11.974;2023-04-25T00:34:18;9.73;;;9.13;;
24826;SDS011;12910;57.690;11.974;2023-04-25T00:36:44;11.20;;;10.20;;
24826;SDS011;12910;57.690;11.974;2023-04-25T00:39:09;11.20;;;10.50;;
24826;SDS011;12910;57.690;11.974;2023-04-25T00:41:35;11.50;;;10.67;;
24826;SDS011;12910;57.690;11.974;2023-04-25T00:44:01;10.97;;;10.27;;
24826;SDS011;12910;57.690;11.974;2023-04-25T00:46:28;11.80;;;10.90;;
24826;SDS011;12910;57.690;11.974;2023-04-25T00:48:54;10.73;;;10.03;;
24826;SDS011;12910;57.690;11.974;2023-04-25T00:51:19;12.07;;;11.17;;
24826;SDS011;12910;57.690;11.974;2023-04-25T00:53:46;12.33;;;11.17;;
24826;SDS011;12910;57.690;11.974;2023-04-25T00:56:14;12.50;;;11.73;;
24826;SDS011;12910;57.690;11.974;2023-04-25T00:58:41;13.93;;;12.77;;
24826;SDS011;12910;57.690;11.974;2023-04-25T01:01:07;14.27;;;13.17;;
24826;SDS011;12910;57.690;11.974;2023-04-25T01:03:33;13.07;;;12.17;;
24826;SDS011;12910;57.690;11.974;2023-04-25T01:06:05;15.63;;;14.53;;
24826;SDS011;12910;57.690;11.974;2023-04-25T01:08:35;14.47;;;13.43;;
24826;SDS011;12910;57.690;11.974;2023-04-25T01:11:01;14.23;;;13.33;;
24826;SDS011;12910;57.690;11.974;2023-04-25T01:13:27;14.67;;;13.43;;
24826;SDS011;12910;57.690;11.974;2023-04-25T01:15:52;14.23;;;13.13;;
24826;SDS011;12910;57.690;11.974;2023-04-25T01:18:18;13.63;;;12.73;;
24826;SDS011;12910;57.690;11.974;2023-04-25T01:20:44;13.53;;;12.30;;
24826;SDS011;12910;57.690;11.974;2023-04-25T01:23:10;13.97;;;13.07;;
24826;SDS011;12910;57.690;11.974;2023-04-25T01:25:36;13.13;;;12.33;;
24826;SDS011;12910;57.690;11.974;2023-04-25T01:28:02;13.47;;;12.33;;
24826;SDS011;12910;57.690;11.974;2023-04-25T01:30:27;12.53;;;11.83;;
24826;SDS011;12910;57.690;11.974;2023-04-25T01:32:54;13.77;;;12.87;;
24826;SDS011;12910;57.690;11.974;2023-04-25T01:35:20;13.43;;;12.63;;
24826;SDS011;12910;57.690;11.974;2023-04-25T01:37:47;12.20;;;11.43;;
24826;SDS011;12910;57.690;11.974;2023-04-25T01:40:12;13.40;;;12.50;;
24826;SDS011;12910;57.690;11.974;2023-04-25T01:42:39;12.50;;;11.70;;
24826;SDS011;12910;57.690;11.974;2023-04-25T01:45:06;12.53;;;11.80;;
24826;SDS011;12910;57.690;11.974;2023-04-25T01:47:33;10.83;;;10.23;;
24826;SDS011;12910;57.690;11.974;2023-04-25T01:50:00;12.20;;;11.27;;
24826;SDS011;12910;57.690;11.974;2023-04-25T01:52:29;12.50;;;11.73;;
24826;SDS011;12910;57.690;11.974;2023-04-25T01:54:55;10.60;;;9.80;;
24826;SDS011;12910;57.690;11.974;2023-04-25T01:57:22;11.13;;;10.33;;
24826;SDS011;12910;57.690;11.974;2023-04-25T01:59:48;11.57;;;10.87;;
24826;SDS011;12910;57.690;11.974;2023-04-25T02:02:14;10.93;;;10.23;;
24826;SDS011;12910;57.690;11.974;2023-04-25T02:04:39;9.90;;;9.30;;
24826;SDS011;12910;57.690;11.974;2023-04-25T02:07:04;9.40;;;8.80;;
24826;SDS011;12910;57.690;11.974;2023-04-25T02:09:30;10.10;;;9.33;;
24826;SDS011;12910;57.690;11.974;2023-04-25T02:11:55;10.17;;;9.57;;
24826;SDS011;12910;57.690;11.974;2023-04-25T02:14:21;9.20;;;8.70;;
24826;SDS011;12910;57.690;11.974;2023-04-25T02:16:46;8.87;;;8.27;;
24826;SDS011;12910;57.690;11.974;2023-04-25T02:19:12;8.60;;;8.10;;
24826;SDS011;12910;57.690;11.974;2023-04-25T02:21:37;9.77;;;9.17;;
24826;SDS011;12910;57.690;11.974;2023-04-25T02:24:03;8.50;;;8.00;;
24826;SDS011;12910;57.690;11.974;2023-04-25T02:26:29;9.07;;;8.50;;
24826;SDS011;12910;57.690;11.974;2023-04-25T02:28:55;7.87;;;7.37;;
24826;SDS011;12910;57.690;11.974;2023-04-25T02:31:21;8.20;;;7.80;;
24826;SDS011;12910;57.690;11.974;2023-04-25T02:33:47;8.90;;;8.30;;
24826;SDS011;12910;57.690;11.974;2023-04-25T02:36:13;7.97;;;7.53;;
24826;SDS011;12910;57.690;11.974;2023-04-25T02:38:38;9.27;;;8.77;;
24826;SDS011;12910;57.690;11.974;2023-04-25T02:41:04;9.17;;;8.47;;
24826;SDS011;12910;57.690;11.974;2023-04-25T02:43:29;8.67;;;8.17;;
24826;SDS011;12910;57.690;11.974;2023-04-25T02:45:55;8.27;;;7.80;;
24826;SDS011;12910;57.690;11.974;2023-04-25T02:48:20;8.60;;;8.10;;
24826;SDS011;12910;57.690;11.974;2023-04-25T02:50:46;9.23;;;8.73;;
24826;SDS011;12910;57.690;11.974;2023-04-25T02:53:11;9.07;;;8.53;;
24826;SDS011;12910;57.690;11.974;2023-04-25T02:55:36;9.37;;;8.77;;
24826;SDS011;12910;57.690;11.974;2023-04-25T02:58:02;8.97;;;8.47;;
24826;SDS011;12910;57.690;11.974;2023-04-25T03:00:28;9.80;;;8.90;;
24826;SDS011;12910;57.690;11.974;2023-04-25T03:02:53;9.50;;;8.90;;
24826;SDS011;12910;57.690;11.974;2023-04-25T03:05:18;8.63;;;8.13;;
24826;SDS011;12910;57.690;11.974;2023-04-25T03:07:44;8.50;;;8.00;;
24826;SDS011;12910;57.690;11.974;2023-04-25T03:10:10;9.30;;;8.70;;
24826;SDS011;12910;57.690;11.974;2023-04-25T03:12:36;8.73;;;8.23;;
24826;SDS011;12910;57.690;11.974;2023-04-25T03:15:01;8.73;;;8.23;;
24826;SDS011;12910;57.690;11.974;2023-04-25T03:17:27;8.87;;;8.27;;
24826;SDS011;12910;57.690;11.974;2023-04-25T03:19:53;8.20;;;7.70;;
24826;SDS011;12910;57.690;11.974;2023-04-25T03:22:18;8.60;;;8.00;;
24826;SDS011;12910;57.690;11.974;2023-04-25T03:24:43;6.80;;;6.40;;
24826;SDS011;12910;57.690;11.974;2023-04-25T03:27:09;7.83;;;7.43;;
24826;SDS011;12910;57.690;11.974;2023-04-25T03:29:34;8.60;;;8.10;;
24826;SDS011;12910;57.690;11.974;2023-04-25T03:32:01;8.30;;;7.80;;
24826;SDS011;12910;57.690;11.974;2023-04-25T03:34:27;8.00;;;7.60;;
24826;SDS011;12910;57.690;11.974;2023-04-25T03:36:52;8.97;;;8.20;;
24826;SDS011;12910;57.690;11.974;2023-04-25T03:39:18;8.53;;;8.03;;
24826;SDS011;12910;57.690;11.974;2023-04-25T03:41:43;8.47;;;7.97;;
24826;SDS011;12910;57.690;11.974;2023-04-25T03:44:09;9.33;;;8.83;;
24826;SDS011;12910;57.690;11.974;2023-04-25T03:46:34;9.40;;;8.80;;
24826;SDS011;12910;57.690;11.974;2023-04-25T03:48:59;10.03;;;9.27;;
24826;SDS011;12910;57.690;11.974;2023-04-25T03:51:25;10.30;;;9.50;;
24826;SDS011;12910;57.690;11.974;2023-04-25T03:53:51;9.63;;;9.10;;
24826;SDS011;12910;57.690;11.974;2023-04-25T03:56:17;10.57;;;9.10;;
24826;SDS011;12910;57.690;11.974;2023-04-25T03:58:42;10.47;;;9.67;;
24826;SDS011;12910;57.690;11.974;2023-04-25T04:01:08;9.60;;;8.90;;
24826;SDS011;12910;57.690;11.974;2023-04-25T04:03:33;9.53;;;8.97;;
24826;SDS011;12910;57.690;11.974;2023-04-25T04:06:01;11.10;;;10.43;;
24826;SDS011;12910;57.690;11.974;2023-04-25T04:08:28;10.10;;;9.50;;
24826;SDS011;12910;57.690;11.974;2023-04-25T04:10:53;11.13;;;10.37;;
24826;SDS011;12910;57.690;11.974;2023-04-25T04:13:18;11.03;;;10.20;;
24826;SDS011;12910;57.690;11.974;2023-04-25T04:15:44;10.90;;;10.23;;
24826;SDS011;12910;57.690;11.974;2023-04-25T04:18:09;10.93;;;10.23;;
24826;SDS011;12910;57.690;11.974;2023-04-25T04:20:35;11.07;;;9.90;;
24826;SDS011;12910;57.690;11.974;2023-04-25T04:23:01;8.50;;;7.90;;
24826;SDS011;12910;57.690;11.974;2023-04-25T04:25:26;9.03;;;8.40;;
24826;SDS011;12910;57.690;11.974;2023-04-25T04:27:52;7.60;;;7.00;;
24826;SDS011;12910;57.690;11.974;2023-04-25T04:30:20;11.70;;;7.23;;
24826;SDS011;12910;57.690;11.974;2023-04-25T04:32:50;8.00;;;7.50;;
24826;SDS011;12910;57.690;11.974;2023-04-25T04:35:16;10.03;;;7.53;;
24826;SDS011;12910;57.690;11.974;2023-04-25T04:37:41;8.60;;;8.00;;
24826;SDS011;12910;57.690;11.974;2023-04-25T04:40:06;7.63;;;7.03;;
24826;SDS011;12910;57.690;11.974;2023-04-25T04:42:32;8.00;;;7.40;;
24826;SDS011;12910;57.690;11.974;2023-04-25T04:44:58;7.33;;;6.67;;
24826;SDS011;12910;57.690;11.974;2023-04-25T04:47:24;7.57;;;6.93;;
24826;SDS011;12910;57.690;11.974;2023-04-25T04:49:50;6.57;;;6.10;;
24826;SDS011;12910;57.690;11.974;2023-04-25T04:52:16;7.67;;;6.97;;
24826;SDS011;12910;57.690;11.974;2023-04-25T04:54:41;7.03;;;6.40;;
24826;SDS011;12910;57.690;11.974;2023-04-25T04:57:06;9.97;;;5.77;;
24826;SDS011;12910;57.690;11.974;2023-04-25T04:59:32;9.60;;;6.03;;
24826;SDS011;12910;57.690;11.974;2023-04-25T05:01:57;8.13;;;5.40;;
24826;SDS011;12910;57.690;11.974;2023-04-25T05:04:23;7.33;;;5.03;;
24826;SDS011;12910;57.690;11.974;2023-04-25T05:06:48;8.20;;;4.30;;
24826;SDS011;12910;57.690;11.974;2023-04-25T05:09:13;5.50;;;5.00;;
24826;SDS011;12910;57.690;11.974;2023-04-25T05:11:39;5.00;;;3.93;;
24826;SDS011;12910;57.690;11.974;2023-04-25T05:14:05;4.10;;;3.70;;
24826;SDS011;12910;57.690;11.974;2023-04-25T05:16:30;5.00;;;3.17;;
24826;SDS011;12910;57.690;11.974;2023-04-25T05:18:56;7.47;;;3.20;;
24826;SDS011;12910;57.690;11.974;2023-04-25T05:21:21;4.23;;;2.70;;
24826;SDS011;12910;57.690;11.974;2023-04-25T05:23:47;3.47;;;2.73;;
24826;SDS011;12910;57.690;11.974;2023-04-25T05:26:12;2.87;;;2.67;;
24826;SDS011;12910;57.690;11.974;2023-04-25T05:28:41;3.87;;;2.27;;
24826;SDS011;12910;57.690;11.974;2023-04-25T05:31:07;6.07;;;2.83;;
24826;SDS011;12910;57.690;11.974;2023-04-25T05:33:34;3.67;;;2.43;;
24826;SDS011;12910;57.690;11.974;2023-04-25T05:36:00;3.30;;;2.50;;
24826;SDS011;12910;57.690;11.974;2023-04-25T05:38:25;3.30;;;2.40;;
24826;SDS011;12910;57.690;11.974;2023-04-25T05:40:51;2.20;;;2.00;;
24826;SDS011;12910;57.690;11.974;2023-04-25T05:43:16;3.30;;;2.30;;
24826;SDS011;12910;57.690;11.974;2023-04-25T05:45:41;4.33;;;2.00;;
24826;SDS011;12910;57.690;11.974;2023-04-25T05:48:07;2.00;;;1.80;;
24826;SDS011;12910;57.690;11.974;2023-04-25T05:50:32;1.87;;;1.67;;
24826;SDS011;12910;57.690;11.974;2023-04-25T05:52:58;2.27;;;2.07;;
24826;SDS011;12910;57.690;11.974;2023-04-25T05:55:23;2.10;;;1.70;;
24826;SDS011;12910;57.690;11.974;2023-04-25T05:57:48;2.00;;;1.90;;
24826;SDS011;12910;57.690;11.974;2023-04-25T06:00:14;1.70;;;1.60;;
24826;SDS011;12910;57.690;11.974;2023-04-25T06:02:40;1.53;;;1.37;;
24826;SDS011;12910;57.690;11.974;2023-04-25T06:05:07;3.30;;;2.30;;
24826;SDS011;12910;57.690;11.974;2023-04-25T06:07:33;3.43;;;1.40;;
24826;SDS011;12910;57.690;11.974;2023-04-25T06:09:58;2.07;;;1.97;;
24826;SDS011;12910;57.690;11.974;2023-04-25T06:12:25;2.20;;;1.50;;
24826;SDS011;12910;57.690;11.974;2023-04-25T06:14:50;1.73;;;1.23;;
24826;SDS011;12910;57.690;11.974;2023-04-25T06:17:15;1.93;;;1.47;;
24826;SDS011;12910;57.690;11.974;2023-04-25T06:19:41;4.00;;;1.70;;
24826;SDS011;12910;57.690;11.974;2023-04-25T06:22:06;3.13;;;1.60;;
24826;SDS011;12910;57.690;11.974;2023-04-25T06:24:32;5.37;;;3.00;;
24826;SDS011;12910;57.690;11.974;2023-04-25T06:26:58;7.67;;;2.03;;
24826;SDS011;12910;57.690;11.974;2023-04-25T06:29:23;4.73;;;1.70;;
24826;SDS011;12910;57.690;11.974;2023-04-25T06:31:49;8.27;;;2.17;;
24826;SDS011;12910;57.690;11.974;2023-04-25T06:34:15;6.03;;;1.97;;
24826;SDS011;12910;57.690;11.974;2023-04-25T06:36:40;3.63;;;1.53;;
24826;SDS011;12910;57.690;11.974;2023-04-25T06:39:06;4.17;;;1.17;;
24826;SDS011;12910;57.690;11.974;2023-04-25T06:41:32;1.17;;;0.70;;
24826;SDS011;12910;57.690;11.974;2023-04-25T06:43:58;2.47;;;1.10;;
24826;SDS011;12910;57.690;11.974;2023-04-25T06:46:24;2.00;;;1.00;;
24826;SDS011;12910;57.690;11.974;2023-04-25T06:48:49;1.87;;;0.90;;
24826;SDS011;12910;57.690;11.974;2023-04-25T06:51:15;6.43;;;0.87;;
24826;SDS011;12910;57.690;11.974;2023-04-25T06:53:40;4.83;;;1.60;;
24826;SDS011;12910;57.690;11.974;2023-04-25T06:56:05;2.63;;;0.83;;
24826;SDS011;12910;57.690;11.974;2023-04-25T06:58:31;3.17;;;2.20;;
24826;SDS011;12910;57.690;11.974;2023-04-25T07:00:57;1.17;;;0.53;;
24826;SDS011;12910;57.690;11.974;2023-04-25T07:03:23;5.87;;;0.80;;
24826;SDS011;12910;57.690;11.974;2023-04-25T07:05:49;1.20;;;0.67;;
24826;SDS011;12910;57.690;11.974;2023-04-25T07:08:15;2.50;;;0.70;;
24826;SDS011;12910;57.690;11.974;2023-04-25T07:10:40;8.03;;;0.77;;
24826;SDS011;12910;57.690;11.974;2023-04-25T07:13:05;1.80;;;1.00;;
24826;SDS011;12910;57.690;11.974;2023-04-25T07:15:31;2.03;;;0.67;;
24826;SDS011;12910;57.690;11.974;2023-04-25T07:17:56;1.63;;;1.10;;
24826;SDS011;12910;57.690;11.974;2023-04-25T07:20:22;3.03;;;0.70;;
24826;SDS011;12910;57.690;11.974;2023-04-25T07:22:47;1.27;;;0.47;;
24826;SDS011;12910;57.690;11.974;2023-04-25T07:25:12;0.87;;;0.40;;
24826;SDS011;12910;57.690;11.974;2023-04-25T07:27:38;5.00;;;0.47;;
24826;SDS011;12910;57.690;11.974;2023-04-25T07:30:04;1.30;;;0.40;;
24826;SDS011;12910;57.690;11.974;2023-04-25T07:32:30;0.67;;;0.40;;
24826;SDS011;12910;57.690;11.974;2023-04-25T07:34:56;0.90;;;0.40;;
24826;SDS011;12910;57.690;11.974;2023-04-25T07:37:21;2.73;;;0.63;;
24826;SDS011;12910;57.690;11.974;2023-04-25T07:39:46;1.23;;;0.23;;
24826;SDS011;12910;57.690;11.974;2023-04-25T07:42:12;1.23;;;0.57;;
24826;SDS011;12910;57.690;11.974;2023-04-25T07:44:38;2.73;;;0.37;;
24826;SDS011;12910;57.690;11.974;2023-04-25T07:47:05;1.93;;;0.40;;
24826;SDS011;12910;57.690;11.974;2023-04-25T07:49:32;2.23;;;0.33;;
24826;SDS011;12910;57.690;11.974;2023-04-25T07:51:59;1.03;;;0.30;;
24826;SDS011;12910;57.690;11.974;2023-04-25T07:54:25;1.37;;;0.50;;
24826;SDS011;12910;57.690;11.974;2023-04-25T07:56:50;2.17;;;0.50;;
24826;SDS011;12910;57.690;11.974;2023-04-25T07:59:16;0.53;;;0.40;;
24826;SDS011;12910;57.690;11.974;2023-04-25T08:01:41;2.70;;;0.40;;
24826;SDS011;12910;57.690;11.974;2023-04-25T08:04:06;0.60;;;0.40;;
24826;SDS011;12910;57.690;11.974;2023-04-25T08:06:32;0.60;;;0.30;;
24826;SDS011;12910;57.690;11.974;2023-04-25T08:08:57;0.50;;;0.20;;
24826;SDS011;12910;57.690;11.974;2023-04-25T08:11:23;0.60;;;0.30;;
24826;SDS011;12910;57.690;11.974;2023-04-25T08:13:48;0.90;;;0.40;;
24826;SDS011;12910;57.690;11.974;2023-04-25T08:16:14;1.40;;;0.37;;
24826;SDS011;12910;57.690;11.974;2023-04-25T08:18:39;1.10;;;0.30;;
24826;SDS011;12910;57.690;11.974;2023-04-25T08:21:05;0.40;;;0.30;;
24826;SDS011;12910;57.690;11.974;2023-04-25T08:23:31;1.33;;;0.37;;
24826;SDS011;12910;57.690;11.974;2023-04-25T08:25:57;0.93;;;0.20;;
24826;SDS011;12910;57.690;11.974;2023-04-25T08:28:22;1.13;;;0.30;;
24826;SDS011;12910;57.690;11.974;2023-04-25T08:30:47;1.47;;;0.57;;
24826;SDS011;12910;57.690;11.974;2023-04-25T08:33:13;4.70;;;0.57;;
24826;SDS011;12910;57.690;11.974;2023-04-25T08:35:38;4.40;;;0.60;;
24826;SDS011;12910;57.690;11.974;2023-04-25T08:38:04;1.20;;;0.47;;
24826;SDS011;12910;57.690;11.974;2023-04-25T08:40:29;4.43;;;0.40;;
24826;SDS011;12910;57.690;11.974;2023-04-25T08:43:00;1.20;;;1.10;;
24826;SDS011;12910;57.690;11.974;2023-04-25T08:45:28;3.73;;;0.50;;
24826;SDS011;12910;57.690;11.974;2023-04-25T08:47:57;0.50;;;0.37;;
24826;SDS011;12910;57.690;11.974;2023-04-25T08:50:23;4.70;;;0.30;;
24826;SDS011;12910;57.690;11.974;2023-04-25T08:52:51;1.10;;;0.37;;
24826;SDS011;12910;57.690;11.974;2023-04-25T08:55:18;2.57;;;0.30;;
24826;SDS011;12910;57.690;11.974;2023-04-25T08:57:46;0.67;;;0.40;;
24826;SDS011;12910;57.690;11.974;2023-04-25T09:00:12;0.53;;;0.50;;
24826;SDS011;12910;57.690;11.974;2023-04-25T09:02:39;3.07;;;0.40;;
24826;SDS011;12910;57.690;11.974;2023-04-25T09:05:05;1.53;;;0.40;;
24826;SDS011;12910;57.690;11.974;2023-04-25T09:07:32;1.00;;;0.40;;
24826;SDS011;12910;57.690;11.974;2023-04-25T09:09:58;1.03;;;0.37;;
24826;SDS011;12910;57.690;11.974;2023-04-25T09:12:26;0.47;;;0.30;;
24826;SDS011;12910;57.690;11.974;2023-04-25T09:17:35;1.80;;;0.40;;
24826;SDS011;12910;57.690;11.974;2023-04-25T09:20:05;2.57;;;0.40;;
24826;SDS011;12910;57.690;11.974;2023-04-25T09:22:32;1.87;;;0.37;;
24826;SDS011;12910;57.690;11.974;2023-04-25T09:24:58;0.87;;;0.20;;
24826;SDS011;12910;57.690;11.974;2023-04-25T09:27:28;0.90;;;0.83;;
24826;SDS011;12910;57.690;11.974;2023-04-25T09:29:57;0.77;;;0.20;;
24826;SDS011;12910;57.690;11.974;2023-04-25T09:32:27;0.50;;;0.50;;
24826;SDS011;12910;57.690;11.974;2023-04-25T09:34:53;1.27;;;0.23;;
24826;SDS011;12910;57.690;11.974;2023-04-25T09:37:21;0.50;;;0.40;;
24826;SDS011;12910;57.690;11.974;2023-04-25T09:39:52;3.90;;;0.50;;
24826;SDS011;12910;57.690;11.974;2023-04-25T09:42:23;0.27;;;0.27;;
24826;SDS011;12910;57.690;11.974;2023-04-25T09:44:51;0.30;;;0.30;;
24826;SDS011;12910;57.690;11.974;2023-04-25T09:47:25;0.20;;;0.20;;
24826;SDS011;12910;57.690;11.974;2023-04-25T09:50:00;1.07;;;0.33;;
24826;SDS011;12910;57.690;11.974;2023-04-25T09:52:26;0.30;;;0.20;;
24826;SDS011;12910;57.690;11.974;2023-04-25T09:54:51;1.60;;;0.40;;
24826;SDS011;12910;57.690;11.974;2023-04-25T09:59:47;1.20;;;0.30;;
24826;SDS011;12910;57.690;11.974;2023-04-25T10:02:15;1.60;;;0.30;;
24826;SDS011;12910;57.690;11.974;2023-04-25T10:04:42;1.03;;;0.40;;
24826;SDS011;12910;57.690;11.974;2023-04-25T10:07:12;1.40;;;0.40;;
24826;SDS011;12910;57.690;11.974;2023-04-25T10:09:39;0.80;;;0.30;;
24826;SDS011;12910;57.690;11.974;2023-04-25T10:12:05;0.33;;;0.30;;
24826;SDS011;12910;57.690;11.974;2023-04-25T10:14:34;0.53;;;0.27;;
24826;SDS011;12910;57.690;11.974;2023-04-25T10:17:00;0.30;;;0.30;;
24826;SDS011;12910;57.690;11.974;2023-04-25T10:19:26;3.93;;;0.63;;
24826;SDS011;12910;57.690;11.974;2023-04-25T10:24:20;0.27;;;0.27;;
24826;SDS011;12910;57.690;11.974;2023-04-25T10:26:47;0.87;;;0.30;;
24826;SDS011;12910;57.690;11.974;2023-04-25T10:29:15;0.87;;;0.33;;
24826;SDS011;12910;57.690;11.974;2023-04-25T10:31:46;1.03;;;0.30;;
24826;SDS011;12910;57.690;11.974;2023-04-25T10:34:12;2.03;;;0.30;;
24826;SDS011;12910;57.690;11.974;2023-04-25T10:36:38;2.73;;;0.30;;
24826;SDS011;12910;57.690;11.974;2023-04-25T10:39:04;0.60;;;0.50;;
24826;SDS011;12910;57.690;11.974;2023-04-25T10:41:47;2.80;;;0.30;;
24826;SDS011;12910;57.690;11.974;2023-04-25T10:44:17;0.93;;;0.33;;
24826;SDS011;12910;57.690;11.974;2023-04-25T10:46:43;0.77;;;0.30;;
24826;SDS011;12910;57.690;11.974;2023-04-25T10:49:10;1.10;;;0.30;;
24826;SDS011;12910;57.690;11.974;2023-04-25T10:51:58;0.30;;;0.30;;
24826;SDS011;12910;57.690;11.974;2023-04-25T10:54:39;0.20;;;0.20;;
24826;SDS011;12910;57.690;11.974;2023-04-25T10:57:31;0.30;;;0.30;;
24826;SDS011;12910;57.690;11.974;2023-04-25T11:02:41;0.23;;;0.23;;
24826;SDS011;12910;57.690;11.974;2023-04-25T11:05:31;1.53;;;1.03;;
24826;SDS011;12910;57.690;11.974;2023-04-25T11:07:58;1.07;;;0.30;;
24826;SDS011;12910;57.690;11.974;2023-04-25T11:10:28;4.27;;;0.70;;
24826;SDS011;12910;57.690;11.974;2023-04-25T11:12:55;0.97;;;0.30;;
24826;SDS011;12910;57.690;11.974;2023-04-25T11:15:21;5.97;;;0.63;;
24826;SDS011;12910;57.690;11.974;2023-04-25T11:17:47;1.40;;;0.43;;
24826;SDS011;12910;57.690;11.974;2023-04-25T11:20:13;1.90;;;0.40;;
24826;SDS011;12910;57.690;11.974;2023-04-25T11:22:40;1.43;;;0.37;;
24826;SDS011;12910;57.690;11.974;2023-04-25T11:25:06;0.60;;;0.60;;
24826;SDS011;12910;57.690;11.974;2023-04-25T11:27:33;1.37;;;0.33;;
24826;SDS011;12910;57.690;11.974;2023-04-25T11:29:58;0.43;;;0.30;;
24826;SDS011;12910;57.690;11.974;2023-04-25T11:32:23;0.57;;;0.40;;
24826;SDS011;12910;57.690;11.974;2023-04-25T11:34:49;0.30;;;0.30;;
24826;SDS011;12910;57.690;11.974;2023-04-25T11:37:14;0.90;;;0.33;;
24826;SDS011;12910;57.690;11.974;2023-04-25T11:39:44;1.23;;;0.60;;
24826;SDS011;12910;57.690;11.974;2023-04-25T11:42:12;0.83;;;0.50;;
24826;SDS011;12910;57.690;11.974;2023-04-25T11:44:39;0.60;;;0.50;;
24826;SDS011;12910;57.690;11.974;2023-04-25T11:47:05;1.47;;;0.30;;
24826;SDS011;12910;57.690;11.974;2023-04-25T11:49:31;4.17;;;0.40;;
24826;SDS011;12910;57.690;11.974;2023-04-25T11:51:57;1.60;;;0.40;;
24826;SDS011;12910;57.690;11.974;2023-04-25T11:54:22;0.67;;;0.30;;
24826;SDS011;12910;57.690;11.974;2023-04-25T11:56:48;3.37;;;0.40;;
24826;SDS011;12910;57.690;11.974;2023-04-25T11:59:14;0.57;;;0.30;;
24826;SDS011;12910;57.690;11.974;2023-04-25T12:01:47;0.60;;;0.30;;
24826;SDS011;12910;57.690;11.974;2023-04-25T12:04:21;0.53;;;0.40;;
24826;SDS011;12910;57.690;11.974;2023-04-25T12:06:48;0.83;;;0.30;;
24826;SDS011;12910;57.690;11.974;2023-04-25T12:09:20;1.53;;;0.30;;
24826;SDS011;12910;57.690;11.974;2023-04-25T12:11:53;0.47;;;0.20;;
24826;SDS011;12910;57.690;11.974;2023-04-25T12:14:20;2.53;;;0.50;;
24826;SDS011;12910;57.690;11.974;2023-04-25T12:16:49;2.13;;;0.40;;
24826;SDS011;12910;57.690;11.974;2023-04-25T12:19:16;3.43;;;1.33;;
24826;SDS011;12910;57.690;11.974;2023-04-25T12:21:43;1.63;;;0.40;;
24826;SDS011;12910;57.690;11.974;2023-04-25T12:24:15;5.87;;;0.60;;
24826;SDS011;12910;57.690;11.974;2023-04-25T12:26:50;1.07;;;0.27;;
24826;SDS011;12910;57.690;11.974;2023-04-25T12:29:16;0.63;;;0.30;;
24826;SDS011;12910;57.690;11.974;2023-04-25T12:31:45;1.17;;;0.30;;
24826;SDS011;12910;57.690;11.974;2023-04-25T12:34:10;0.63;;;0.63;;
24826;SDS011;12910;57.690;11.974;2023-04-25T12:36:36;2.50;;;0.50;;
24826;SDS011;12910;57.690;11.974;2023-04-25T12:39:02;0.60;;;0.30;;
24826;SDS011;12910;57.690;11.974;2023-04-25T12:41:29;2.47;;;0.57;;
24826;SDS011;12910;57.690;11.974;2023-04-25T12:43:55;1.37;;;0.40;;
24826;SDS011;12910;57.690;11.974;2023-04-25T12:46:20;0.90;;;0.60;;
24826;SDS011;12910;57.690;11.974;2023-04-25T12:48:47;0.47;;;0.33;;
24826;SDS011;12910;57.690;11.974;2023-04-25T12:51:13;0.40;;;0.40;;
24826;SDS011;12910;57.690;11.974;2023-04-25T12:53:38;0.57;;;0.50;;
24826;SDS011;12910;57.690;11.974;2023-04-25T12:56:05;1.80;;;0.60;;
24826;SDS011;12910;57.690;11.974;2023-04-25T12:58:32;0.87;;;0.70;;
24826;SDS011;12910;57.690;11.974;2023-04-25T13:00:58;5.00;;;0.40;;
24826;SDS011;12910;57.690;11.974;2023-04-25T13:03:23;0.90;;;0.30;;
24826;SDS011;12910;57.690;11.974;2023-04-25T13:05:50;1.33;;;0.40;;
24826;SDS011;12910;57.690;11.974;2023-04-25T13:08:17;0.40;;;0.30;;
24826;SDS011;12910;57.690;11.974;2023-04-25T13:10:43;5.10;;;0.67;;
24826;SDS011;12910;57.690;11.974;2023-04-25T13:13:08;0.77;;;0.33;;
24826;SDS011;12910;57.690;11.974;2023-04-25T13:15:33;0.40;;;0.40;;
24826;SDS011;12910;57.690;11.974;2023-04-25T13:17:59;7.10;;;0.77;;
24826;SDS011;12910;57.690;11.974;2023-04-25T13:20:24;0.50;;;0.30;;
24826;SDS011;12910;57.690;11.974;2023-04-25T13:22:50;1.57;;;0.30;;
24826;SDS011;12910;57.690;11.974;2023-04-25T13:25:15;2.10;;;0.40;;
24826;SDS011;12910;57.690;11.974;2023-04-25T13:27:41;0.40;;;0.40;;
24826;SDS011;12910;57.690;11.974;2023-04-25T13:30:09;8.73;;;0.80;;
24826;SDS011;12910;57.690;11.974;2023-04-25T13:32:35;0.50;;;0.50;;
24826;SDS011;12910;57.690;11.974;2023-04-25T13:35:02;0.57;;;0.50;;
24826;SDS011;12910;57.690;11.974;2023-04-25T13:37:28;1.43;;;1.00;;
24826;SDS011;12910;57.690;11.974;2023-04-25T13:39:55;0.30;;;0.30;;
24826;SDS011;12910;57.690;11.974;2023-04-25T13:42:21;0.80;;;0.60;;
24826;SDS011;12910;57.690;11.974;2023-04-25T13:44:47;0.73;;;0.40;;
24826;SDS011;12910;57.690;11.974;2023-04-25T13:47:13;3.50;;;0.30;;
24826;SDS011;12910;57.690;11.974;2023-04-25T13:49:38;1.47;;;0.50;;
24826;SDS011;12910;57.690;11.974;2023-04-25T13:52:04;6.93;;;0.40;;
24826;SDS011;12910;57.690;11.974;2023-04-25T13:54:29;3.37;;;0.30;;
24826;SDS011;12910;57.690;11.974;2023-04-25T13:56:54;3.63;;;0.40;;
24826;SDS011;12910;57.690;11.974;2023-04-25T13:59:23;0.63;;;0.40;;
24826;SDS011;12910;57.690;11.974;2023-04-25T14:01:49;1.03;;;0.30;;
24826;SDS011;12910;57.690;11.974;2023-04-25T14:04:14;0.90;;;0.50;;
24826;SDS011;12910;57.690;11.974;2023-04-25T14:06:40;1.37;;;0.50;;
24826;SDS011;12910;57.690;11.974;2023-04-25T14:09:06;0.90;;;0.40;;
24826;SDS011;12910;57.690;11.974;2023-04-25T14:11:35;0.40;;;0.40;;
24826;SDS011;12910;57.690;11.974;2023-04-25T14:14:01;1.47;;;0.50;;
24826;SDS011;12910;57.690;11.974;2023-04-25T14:16:26;0.50;;;0.50;;
24826;SDS011;12910;57.690;11.974;2023-04-25T14:18:52;5.30;;;0.33;;
24826;SDS011;12910;57.690;11.974;2023-04-25T14:21:19;0.57;;;0.40;;
24826;SDS011;12910;57.690;11.974;2023-04-25T14:23:45;2.63;;;0.30;;
24826;SDS011;12910;57.690;11.974;2023-04-25T14:26:11;0.30;;;0.30;;
24826;SDS011;12910;57.690;11.974;2023-04-25T14:28:37;0.20;;;0.20;;
24826;SDS011;12910;57.690;11.974;2023-04-25T14:31:03;1.13;;;0.73;;
24826;SDS011;12910;57.690;11.974;2023-04-25T14:33:28;0.47;;;0.30;;
24826;SDS011;12910;57.690;11.974;2023-04-25T14:35:54;0.60;;;0.60;;